createdAt,value
2019-05-22T00:02:34.551Z,101105.91
2019-05-22T00:16:18.034Z,101099.79
2019-05-22T00:18:49.431Z,101105.19
2019-05-22T00:21:20.625Z,101100.37
2019-05-22T00:23:52.403Z,101100.05
2019-05-22T00:26:22.061Z,101098.36
2019-05-22T00:28:51.581Z,101102.80
2019-05-22T00:31:21.937Z,101106.97
2019-05-22T00:33:51.957Z,101092.32
2019-05-22T00:36:21.311Z,101096.66
2019-05-22T00:38:50.893Z,101097.05
2019-05-22T00:41:23.164Z,101097.72
2019-05-22T00:43:53.000Z,101093.08
2019-05-22T00:46:24.492Z,101095.93
2019-05-22T00:48:54.262Z,101099.33
2019-05-22T00:51:41.345Z,101111.23
2019-05-22T00:54:38.371Z,101121.66
2019-05-22T00:57:14.984Z,101110.41
2019-05-22T00:59:45.208Z,101122.79
2019-05-22T01:02:18.795Z,101115.59
2019-05-22T01:04:49.502Z,101118.64
2019-05-22T01:07:18.921Z,101113.35
2019-05-22T01:09:52.173Z,101114.75
2019-05-22T01:12:29.360Z,101120.14
2019-05-22T01:15:04.722Z,101123.84
2019-05-22T01:17:36.730Z,101118.44
2019-05-22T01:20:09.893Z,101117.49
2019-05-22T01:22:39.579Z,101123.63
2019-05-22T01:25:11.915Z,101122.98
2019-05-22T01:27:42.234Z,101133.67
2019-05-22T01:30:18.836Z,101135.27
2019-05-22T01:32:51.954Z,101136.86
2019-05-22T01:35:26.941Z,101135.27
2019-05-22T01:37:57.612Z,101140.94
2019-05-22T01:40:41.499Z,101142.84
2019-05-22T01:43:14.160Z,101140.67
2019-05-22T01:45:52.492Z,101146.80
2019-05-22T01:48:27.418Z,101140.77
2019-05-22T01:50:57.694Z,101146.98
2019-05-22T01:53:38.524Z,101147.45
2019-05-22T01:56:11.274Z,101136.80
2019-05-22T01:58:42.410Z,101146.23
2019-05-22T02:01:19.162Z,101148.13
2019-05-22T02:03:48.185Z,101151.25
2019-05-22T02:06:19.320Z,101154.17
2019-05-22T02:08:53.086Z,101143.59
2019-05-22T02:11:24.510Z,101150.67
2019-05-22T02:14:01.392Z,101146.23
2019-05-22T02:16:31.981Z,101152.84
2019-05-22T02:19:03.066Z,101156.81
2019-05-22T02:21:32.682Z,101161.84
2019-05-22T02:24:01.909Z,101156.55
2019-05-22T02:26:32.696Z,101158.23
2019-05-22T02:29:02.845Z,101156.06
2019-05-22T02:31:34.161Z,101155.70
2019-05-22T02:34:05.518Z,101155.02
2019-05-22T02:36:37.005Z,101157.86
2019-05-22T02:39:13.399Z,101157.02
2019-05-22T02:41:47.179Z,101159.29
2019-05-22T02:44:16.383Z,101163.43
2019-05-22T02:46:46.267Z,101165.13
2019-05-22T02:49:18.358Z,101172.14
2019-05-22T02:51:48.639Z,101169.30
2019-05-22T02:54:18.369Z,101167.22
2019-05-22T02:56:47.521Z,101166.27
2019-05-22T02:59:18.079Z,101176.28
2019-05-22T03:01:47.528Z,101171.84
2019-05-22T03:04:18.978Z,101172.14
2019-05-22T03:06:48.857Z,101170.99
2019-05-22T03:09:25.737Z,101171.30
2019-05-22T03:12:03.942Z,101178.28
2019-05-22T03:14:34.987Z,101179.13
2019-05-22T03:17:08.466Z,101180.94
2019-05-22T03:19:42.700Z,101176.48
2019-05-22T03:22:26.725Z,101180.45
2019-05-22T03:24:57.911Z,101186.13
2019-05-22T03:27:47.972Z,101190.47
2019-05-22T03:30:22.187Z,101191.22
2019-05-22T03:32:52.134Z,101190.47
2019-05-22T03:35:25.173Z,101188.39
2019-05-22T03:37:56.284Z,101190.47
2019-05-22T03:40:28.120Z,101190.27
2019-05-22T03:42:58.115Z,101194.23
2019-05-22T03:45:28.160Z,101198.61
2019-05-22T03:47:59.122Z,101193.69
2019-05-22T03:50:29.531Z,101205.59
2019-05-22T03:53:01.544Z,101204.81
2019-05-22T03:55:30.768Z,101206.92
2019-05-22T03:58:00.408Z,101208.52
2019-05-22T04:00:30.838Z,101207.47
2019-05-22T04:03:00.509Z,101214.86
2019-05-22T04:05:30.835Z,101209.73
2019-05-22T04:07:59.749Z,101214.86
2019-05-22T04:10:34.274Z,101221.27
2019-05-22T04:13:04.660Z,101217.98
2019-05-22T04:15:35.751Z,101221.84
2019-05-22T04:18:16.260Z,101226.84
2019-05-22T04:20:46.081Z,101230.91
2019-05-22T04:23:15.414Z,101233.55
2019-05-22T04:25:44.614Z,101236.20
2019-05-22T04:28:13.464Z,101235.08
2019-05-22T04:30:44.004Z,101236.88
2019-05-22T04:33:13.935Z,101242.17
2019-05-22T04:35:43.196Z,101243.13
2019-05-22T04:38:12.556Z,101248.50
2019-05-22T04:40:55.563Z,101251.72
2019-05-22T04:43:26.461Z,101257.95
2019-05-22T04:45:57.131Z,101262.67
2019-05-22T04:48:29.389Z,101262.40
2019-05-22T04:51:04.152Z,101263.25
2019-05-22T04:53:34.143Z,101280.53
2019-05-22T04:56:03.279Z,101275.89
2019-05-22T04:58:33.710Z,101275.89
2019-05-22T05:01:02.842Z,101282.89
2019-05-22T05:03:32.703Z,101282.33
2019-05-22T05:06:06.665Z,101281.76
2019-05-22T05:08:35.288Z,101277.59
2019-05-22T05:11:05.300Z,101280.83
2019-05-22T05:13:34.411Z,101277.91
2019-05-22T05:16:04.147Z,101283.55
2019-05-22T05:18:34.329Z,101285.73
2019-05-22T05:21:03.250Z,101288.28
2019-05-22T05:23:32.359Z,101286.48
2019-05-22T05:26:02.689Z,101290.09
2019-05-22T05:28:31.897Z,101299.25
2019-05-22T05:31:00.880Z,101302.00
2019-05-22T05:33:33.254Z,101303.42
2019-05-22T05:36:02.426Z,101301.41
2019-05-22T05:38:37.170Z,101301.63
2019-05-22T05:41:06.859Z,101302.36
2019-05-22T05:43:36.149Z,101310.87
2019-05-22T05:46:05.279Z,101307.55
2019-05-22T05:48:36.079Z,101317.12
2019-05-22T05:51:36.163Z,101317.48
2019-05-22T05:54:15.416Z,101324.92
2019-05-22T05:56:52.398Z,101317.01
2019-05-22T05:59:24.592Z,101322.77
2019-05-22T06:01:55.916Z,101329.96
2019-05-22T06:04:39.080Z,101332.77
2019-05-22T06:07:23.051Z,101335.44
2019-05-22T06:10:32.736Z,101327.02
2019-05-22T06:13:03.449Z,101337.52
2019-05-22T06:15:46.937Z,101332.61
2019-05-22T06:18:41.292Z,101347.19
2019-05-22T06:21:10.665Z,101347.17
2019-05-22T06:24:20.030Z,101343.77
2019-05-22T06:27:09.037Z,101345.84
2019-05-22T06:29:53.486Z,101361.59
2019-05-22T06:33:03.017Z,101358.56
2019-05-22T06:35:37.824Z,101364.14
2019-05-22T06:38:52.747Z,101363.94
2019-05-22T06:41:25.542Z,101370.36
2019-05-22T06:44:37.115Z,101362.91
2019-05-22T06:47:19.935Z,101374.42
2019-05-22T06:49:53.058Z,101368.28
2019-05-22T06:52:23.537Z,101373.50
2019-05-22T06:54:58.629Z,101372.91
2019-05-22T06:57:32.137Z,101379.34
2019-05-22T07:00:14.066Z,101378.66
2019-05-22T07:02:35.497Z,101377.26
2019-05-22T07:05:07.110Z,101378.42
2019-05-22T07:07:36.414Z,101382.63
2019-05-22T07:10:08.302Z,101384.62
2019-05-22T07:12:43.947Z,101388.61
2019-05-22T07:15:58.280Z,101387.82
2019-05-22T07:18:30.700Z,101392.77
2019-05-22T07:24:40.766Z,101397.94
2019-05-22T07:27:28.283Z,101402.47
2019-05-22T07:29:58.114Z,101404.86
2019-05-22T07:32:30.900Z,101404.30
2019-05-22T07:34:58.801Z,101406.06
2019-05-22T07:37:29.143Z,101408.23
2019-05-22T07:39:57.970Z,101411.86
2019-05-22T07:42:26.933Z,101412.42
2019-05-22T07:44:55.887Z,101421.13
2019-05-22T07:47:25.377Z,101422.17
2019-05-22T07:49:54.626Z,101424.66
2019-05-22T07:52:24.284Z,101432.19
2019-05-22T07:54:54.035Z,101438.87
2019-05-22T07:57:24.640Z,101433.06
2019-05-22T07:59:54.425Z,101440.28
2019-05-22T08:02:25.558Z,101449.48
2019-05-22T08:04:54.916Z,101445.10
2019-05-22T08:07:26.970Z,101448.19
2019-05-22T08:09:56.866Z,101455.75
2019-05-22T08:12:26.525Z,101458.08
2019-05-22T08:14:55.815Z,101456.64
2019-05-22T08:17:26.084Z,101462.38
2019-05-22T08:19:55.264Z,101477.84
2019-05-22T08:22:24.642Z,101460.55
2019-05-22T08:24:53.521Z,101463.63
2019-05-22T08:27:23.697Z,101460.38
2019-05-22T08:29:52.696Z,101463.63
2019-05-22T08:32:24.174Z,101461.33
2019-05-22T08:34:53.594Z,101460.95
2019-05-22T08:37:27.824Z,101475.06
2019-05-22T08:39:56.797Z,101482.29
2019-05-22T08:42:26.752Z,101484.09
2019-05-22T08:44:56.552Z,101492.19
2019-05-22T08:47:25.863Z,101488.50
2019-05-22T08:49:55.162Z,101491.78
2019-05-22T08:52:24.896Z,101491.68
2019-05-22T08:54:54.393Z,101493.04
2019-05-22T08:57:25.071Z,101499.84
2019-05-22T08:59:54.010Z,101503.25
2019-05-22T09:02:23.850Z,101499.62
2019-05-22T09:04:53.166Z,101506.81
2019-05-22T09:07:22.914Z,101508.92
2019-05-22T09:09:51.981Z,101511.06
2019-05-22T09:12:20.818Z,101517.87
2019-05-22T09:14:50.046Z,101520.16
2019-05-22T09:17:19.240Z,101520.67
2019-05-22T09:19:48.541Z,101516.02
2019-05-22T09:22:18.028Z,101523.62
2019-05-22T09:24:47.883Z,101516.20
2019-05-22T09:27:17.308Z,101530.83
2019-05-22T09:29:46.206Z,101534.08
2019-05-22T09:32:15.396Z,101536.95
2019-05-22T09:34:44.570Z,101536.33
2019-05-22T09:37:13.737Z,101533.78
2019-05-22T09:39:42.713Z,101534.72
2019-05-22T09:42:11.646Z,101542.70
2019-05-22T09:44:40.835Z,101552.97
2019-05-22T09:47:10.085Z,101554.51
2019-05-22T09:49:51.802Z,101552.97
2019-05-22T09:52:20.945Z,101554.80
2019-05-22T09:54:49.989Z,101558.10
2019-05-22T09:57:19.175Z,101550.71
2019-05-22T09:59:48.318Z,101556.98
2019-05-22T10:02:17.370Z,101558.58
2019-05-22T10:04:46.638Z,101560.41
2019-05-22T10:07:15.602Z,101564.95
2019-05-22T10:09:44.812Z,101561.30
2019-05-22T10:12:13.845Z,101573.00
2019-05-22T10:14:43.167Z,101566.31
2019-05-22T10:17:13.097Z,101569.94
2019-05-22T10:19:42.770Z,101571.77
2019-05-22T10:22:12.498Z,101578.23
2019-05-22T10:24:42.052Z,101582.61
2019-05-22T10:27:11.565Z,101589.23
2019-05-22T10:29:40.966Z,101582.58
2019-05-22T10:32:11.282Z,101588.70
2019-05-22T10:34:40.335Z,101594.28
2019-05-22T10:37:10.850Z,101587.56
2019-05-22T10:39:40.117Z,101593.16
2019-05-22T10:42:09.395Z,101597.86
2019-05-22T10:44:38.673Z,101599.30
2019-05-22T10:47:08.080Z,101600.25
2019-05-22T10:49:37.659Z,101599.90
2019-05-22T10:52:07.530Z,101601.23
2019-05-22T10:54:37.069Z,101597.09
2019-05-22T10:57:08.127Z,101592.51
2019-05-22T10:59:37.733Z,101593.23
2019-05-22T11:02:08.166Z,101599.25
2019-05-22T11:04:38.263Z,101594.54
2019-05-22T11:07:07.785Z,101594.54
2019-05-22T11:09:37.158Z,101604.39
2019-05-22T11:12:06.735Z,101600.30
2019-05-22T11:14:36.032Z,101601.26
2019-05-22T11:17:04.968Z,101609.50
2019-05-22T11:19:34.094Z,101609.55
2019-05-22T11:22:04.078Z,101620.21
2019-05-22T11:24:33.302Z,101620.21
2019-05-22T11:27:02.354Z,101615.65
2019-05-22T11:29:34.427Z,101620.03
2019-05-22T11:32:03.964Z,101629.59
2019-05-22T11:34:33.590Z,101621.45
2019-05-22T11:37:04.948Z,101624.19
2019-05-22T11:39:39.541Z,101626.27
2019-05-22T11:42:05.929Z,101621.54
2019-05-22T11:44:35.039Z,101623.52
2019-05-22T11:47:04.692Z,101632.23
2019-05-22T11:49:33.893Z,101629.11
2019-05-22T11:52:03.513Z,101635.95
2019-05-22T11:54:32.498Z,101672.12
2019-05-22T11:57:01.626Z,101627.75
2019-05-22T11:59:30.711Z,101642.53
2019-05-22T12:01:59.897Z,101644.14
2019-05-22T12:04:44.408Z,101648.83
2019-05-22T12:06:59.723Z,101644.65
2019-05-22T12:09:30.813Z,101645.38
2019-05-22T12:12:00.119Z,101652.45
2019-05-22T12:14:29.271Z,101643.52
2019-05-22T12:16:59.086Z,101649.09
2019-05-22T12:19:28.343Z,101644.27
2019-05-22T12:21:58.373Z,101659.25
2019-05-22T12:24:35.710Z,101664.20
2019-05-22T12:26:58.419Z,101669.50
2019-05-22T12:29:27.845Z,101667.69
2019-05-22T12:31:56.766Z,101667.69
2019-05-22T12:34:26.111Z,101666.66
2019-05-22T12:37:00.836Z,101675.75
2019-05-22T12:39:35.156Z,101668.33
2019-05-22T12:42:06.006Z,101678.98
2019-05-22T12:44:35.781Z,101683.32
2019-05-22T12:47:05.038Z,101672.14
2019-05-22T12:56:31.428Z,101671.20
2019-05-22T12:59:02.043Z,101666.94
2019-05-22T13:01:31.315Z,101665.31
2019-05-22T13:04:02.997Z,101675.11
2019-05-22T13:06:34.347Z,101676.12
2019-05-22T13:09:06.464Z,101676.12
2019-05-22T13:11:39.861Z,101680.87
2019-05-22T13:14:10.318Z,101680.59
2019-05-22T13:16:47.348Z,101680.59
2019-05-22T13:19:13.246Z,101667.59
2019-05-22T13:21:43.934Z,101675.28
2019-05-22T13:24:23.129Z,101677.67
2019-05-22T13:26:52.460Z,101670.88
2019-05-22T13:29:22.816Z,101674.44
2019-05-22T13:31:52.539Z,101677.09
2019-05-22T13:34:23.787Z,101679.56
2019-05-22T13:36:56.723Z,101682.02
2019-05-22T13:39:26.062Z,101682.02
2019-05-22T13:41:55.564Z,101678.42
2019-05-22T13:44:25.336Z,101685.80
2019-05-22T13:46:54.448Z,101693.56
2019-05-22T13:49:24.872Z,101679.91
2019-05-22T13:51:55.029Z,101686.33
2019-05-22T13:54:26.379Z,101681.24
2019-05-22T13:56:55.975Z,101696.25
2019-05-22T13:59:26.188Z,101685.97
2019-05-22T14:01:55.554Z,101689.52
2019-05-22T14:04:24.594Z,101691.15
2019-05-22T14:06:54.099Z,101692.74
2019-05-22T14:09:24.076Z,101699.80
2019-05-22T14:11:54.518Z,101702.78
2019-05-22T14:14:24.335Z,101693.45
2019-05-22T14:16:53.834Z,101701.58
2019-05-22T14:19:23.191Z,101699.25
2019-05-22T14:21:52.369Z,101699.67
2019-05-22T14:24:21.351Z,101700.05
2019-05-22T14:26:50.708Z,101700.16
2019-05-22T14:29:20.068Z,101702.80
2019-05-22T14:31:49.400Z,101696.57
2019-05-22T14:34:18.595Z,101696.16
2019-05-22T14:36:48.326Z,101693.65
2019-05-22T14:39:17.592Z,101701.86
2019-05-22T14:41:46.472Z,101699.83
2019-05-22T14:44:15.429Z,101696.20
2019-05-22T14:46:45.262Z,101691.36
2019-05-22T14:49:15.235Z,101696.44
2019-05-22T14:51:44.357Z,101694.37
2019-05-22T14:54:13.288Z,101708.63
2019-05-22T14:56:43.815Z,101705.80
2019-05-22T14:59:12.903Z,101707.50
2019-05-22T15:01:41.919Z,101705.55
2019-05-22T15:04:10.874Z,101699.60
2019-05-22T15:06:40.723Z,101705.81
2019-05-22T15:09:10.188Z,101704.66
2019-05-22T15:11:39.961Z,101692.19
2019-05-22T15:14:08.848Z,101704.06
2019-05-22T15:16:37.769Z,101702.28
2019-05-22T15:19:07.010Z,101696.68
2019-05-22T15:21:36.220Z,101694.00
2019-05-22T15:24:06.327Z,101706.66
2019-05-22T15:26:35.462Z,101696.66
2019-05-22T15:29:05.442Z,101709.73
2019-05-22T15:31:34.305Z,101705.88
2019-05-22T15:34:04.168Z,101709.56
2019-05-22T15:36:34.035Z,101693.70
2019-05-22T15:39:05.275Z,101702.67
2019-05-22T15:41:34.700Z,101705.45
2019-05-22T15:44:05.967Z,101716.28
2019-05-22T15:46:36.014Z,101701.70
2019-05-22T15:49:08.799Z,101700.07
2019-05-22T15:51:39.113Z,101702.16
2019-05-22T15:54:10.467Z,101698.09
2019-05-22T15:56:41.205Z,101697.87
2019-05-22T15:59:12.785Z,101699.95
2019-05-22T16:01:44.301Z,101695.88
2019-05-22T16:04:15.670Z,101699.84
2019-05-22T16:06:45.700Z,101696.09
2019-05-22T16:09:17.273Z,101691.59
2019-05-22T16:11:50.294Z,101693.09
2019-05-22T16:14:21.115Z,101697.17
2019-05-22T16:16:52.550Z,101694.27
2019-05-22T16:19:26.144Z,101700.45
2019-05-22T16:21:59.631Z,101697.61
2019-05-22T16:24:28.989Z,101694.37
2019-05-22T16:26:58.630Z,101680.48
2019-05-22T16:29:28.610Z,101705.28
2019-05-22T16:32:00.396Z,101701.98
2019-05-22T16:34:30.317Z,101702.36
2019-05-22T16:37:03.513Z,101704.30
2019-05-22T16:39:30.940Z,101712.47
2019-05-22T16:42:00.340Z,101710.98
2019-05-22T16:44:29.574Z,101719.64
2019-05-22T16:46:59.191Z,101716.41
2019-05-22T16:49:28.594Z,101719.99
2019-05-22T16:51:58.710Z,101715.12
2019-05-22T16:54:30.084Z,101719.35
2019-05-22T16:56:59.130Z,101716.56
2019-05-22T16:59:28.785Z,101721.83
2019-05-22T17:02:00.651Z,101727.63
2019-05-22T17:04:29.949Z,101716.45
2019-05-22T17:07:00.499Z,101723.98
2019-05-22T17:09:30.694Z,101727.69
2019-05-22T17:12:04.442Z,101733.23
2019-05-22T17:14:32.194Z,101731.44
2019-05-22T17:17:03.696Z,101726.53
2019-05-22T17:19:33.153Z,101731.50
2019-05-22T17:22:03.839Z,101732.83
2019-05-22T17:24:34.327Z,101731.24
2019-05-22T17:27:04.483Z,101737.20
2019-05-22T17:29:34.250Z,101725.39
2019-05-22T17:32:05.239Z,101733.02
2019-05-22T17:34:37.289Z,101734.62
2019-05-22T17:37:11.448Z,101733.42
2019-05-22T17:39:44.221Z,101730.64
2019-05-22T17:42:15.902Z,101733.56
2019-05-22T17:44:47.701Z,101733.42
2019-05-22T17:47:17.173Z,101729.80
2019-05-22T17:49:47.436Z,101732.09
2019-05-22T17:52:18.771Z,101733.67
2019-05-22T17:54:50.093Z,101731.79
2019-05-22T17:57:19.649Z,101731.42
2019-05-22T17:59:48.946Z,101734.16
2019-05-22T18:02:20.163Z,101738.95
2019-05-22T18:04:49.981Z,101739.09
2019-05-22T18:07:19.849Z,101739.94
2019-05-22T18:09:50.024Z,101744.80
2019-05-22T18:12:19.276Z,101749.41
2019-05-22T18:14:49.010Z,101752.89
2019-05-22T18:17:18.692Z,101751.42
2019-05-22T18:19:48.357Z,101760.17
2019-05-22T18:22:18.385Z,101755.41
2019-05-22T18:24:48.674Z,101763.39
2019-05-22T18:27:17.898Z,101763.11
2019-05-22T18:29:46.939Z,101767.13
2019-05-22T18:32:16.193Z,101767.56
2019-05-22T18:34:45.461Z,101758.54
2019-05-22T18:37:14.810Z,101771.65
2019-05-22T18:39:43.998Z,101767.38
2019-05-22T18:42:13.371Z,101766.50
2019-05-22T18:44:42.292Z,101767.66
2019-05-22T18:47:11.850Z,101766.90
2019-05-22T18:49:41.315Z,101771.83
2019-05-22T18:52:13.504Z,101775.68
2019-05-22T18:54:42.494Z,101780.89
2019-05-22T18:57:12.582Z,101783.02
2019-05-22T19:04:06.350Z,101783.72
2019-05-22T19:06:36.718Z,101784.28
2019-05-22T19:09:09.352Z,101782.47
2019-05-22T19:11:38.787Z,101791.66
2019-05-22T19:14:08.303Z,101803.81
2019-05-22T19:16:37.719Z,101799.72
2019-05-22T19:19:06.843Z,101799.02
2019-05-22T19:21:35.821Z,101794.41
2019-05-22T19:24:05.193Z,101805.86
2019-05-22T19:26:34.382Z,101804.36
2019-05-22T19:29:04.483Z,101806.45
2019-05-22T19:31:33.592Z,101804.47
2019-05-22T19:34:02.895Z,101797.84
2019-05-22T19:36:31.890Z,101800.67
2019-05-22T19:39:06.069Z,101804.94
2019-05-22T19:41:35.687Z,101807.59
2019-05-22T19:44:05.557Z,101806.59
2019-05-22T19:46:34.510Z,101818.33
2019-05-22T19:49:04.300Z,101808.86
2019-05-22T19:51:33.815Z,101814.54
2019-05-22T19:54:02.857Z,101812.87
2019-05-22T19:56:52.693Z,101812.02
2019-05-22T19:59:22.699Z,101823.23
2019-05-22T20:01:53.082Z,101820.20
2019-05-22T20:04:21.978Z,101815.47
2019-05-22T20:06:51.575Z,101824.30
2019-05-22T20:09:20.463Z,101824.39
2019-05-22T20:11:49.885Z,101830.24
2019-05-22T20:14:19.029Z,101820.18
2019-05-22T20:16:48.123Z,101829.11
2019-05-22T20:19:17.556Z,101832.78
2019-05-22T20:21:47.219Z,101828.58
2019-05-22T20:24:27.449Z,101832.68
2019-05-22T20:26:57.218Z,101839.03
2019-05-22T20:29:26.741Z,101831.02
2019-05-22T20:31:56.168Z,101839.12
2019-05-22T20:34:25.494Z,101828.52
2019-05-22T20:36:58.397Z,101828.52
2019-05-22T20:39:29.645Z,101831.23
2019-05-22T20:41:58.860Z,101829.30
2019-05-22T20:44:28.565Z,101834.27
2019-05-22T20:46:58.811Z,101832.05
2019-05-22T20:49:40.516Z,101798.59
2019-05-22T20:52:14.597Z,101835.34
2019-05-22T20:54:49.641Z,101834.56
2019-05-22T20:57:20.490Z,101839.70
2019-05-22T20:59:50.065Z,101839.06
2019-05-22T21:02:19.901Z,101839.06
2019-05-22T21:04:51.444Z,101838.59
2019-05-22T21:07:26.681Z,101839.27
2019-05-22T21:09:56.171Z,101840.98
2019-05-22T21:12:25.905Z,101841.62
2019-05-22T21:14:54.885Z,101847.30
2019-05-22T21:17:25.200Z,101847.55
2019-05-22T21:19:54.432Z,101850.17
2019-05-22T21:22:25.221Z,101844.83
2019-05-22T21:24:54.235Z,101846.00
2019-05-22T21:27:30.141Z,101841.20
2019-05-22T21:29:59.589Z,101850.72
2019-05-22T21:32:28.468Z,101848.33
2019-05-22T21:35:03.466Z,101851.22
2019-05-22T21:37:33.228Z,101860.95
2019-05-22T21:40:05.699Z,101851.56
2019-05-22T21:42:37.574Z,101849.28
2019-05-22T21:45:07.135Z,101846.11
2019-05-22T21:47:38.549Z,101840.84
2019-05-22T21:53:48.707Z,101848.59
2019-05-22T21:56:17.821Z,101856.39
2019-05-22T21:58:47.425Z,101856.17
2019-05-22T22:01:25.470Z,101851.64
2019-05-22T22:04:04.398Z,101849.56
2019-05-22T22:06:33.517Z,101854.52
2019-05-22T22:12:31.130Z,101862.73
2019-05-22T22:15:00.078Z,101853.80
2019-05-22T22:17:30.662Z,101860.87
2019-05-22T22:20:12.800Z,101851.30
2019-05-22T22:22:42.426Z,101862.27
2019-05-22T22:25:13.398Z,101862.21
2019-05-22T22:27:43.083Z,101861.36
2019-05-22T22:30:22.574Z,101864.78
2019-05-22T22:32:51.669Z,101863.27
2019-05-22T22:35:40.647Z,101871.25
2019-05-22T22:38:10.258Z,101872.30
2019-05-22T22:40:40.945Z,101877.70
2019-05-22T22:43:12.558Z,101876.75
2019-05-22T22:45:56.434Z,101875.62
2019-05-22T22:48:32.059Z,101878.88
2019-05-22T22:51:01.097Z,101884.22
2019-05-22T22:53:32.471Z,101885.98
2019-05-22T22:56:01.556Z,101840.22
2019-05-22T22:58:31.308Z,101891.16
2019-05-22T23:01:02.663Z,101892.17
2019-05-22T23:03:33.398Z,101889.73
2019-05-22T23:06:03.638Z,101888.70
2019-05-22T23:08:34.781Z,101889.25
2019-05-22T23:11:06.851Z,101884.08
2019-05-22T23:13:37.318Z,101885.91
2019-05-22T23:16:06.555Z,101885.86
2019-05-22T23:19:06.969Z,101890.81
2019-05-22T23:21:36.206Z,101884.89
2019-05-22T23:24:04.320Z,101889.14
2019-05-22T23:26:36.075Z,101892.83
2019-05-22T23:29:06.981Z,101886.36
2019-05-22T23:31:36.122Z,101887.46
2019-05-22T23:34:06.474Z,101885.24
2019-05-22T23:36:36.055Z,101883.05
2019-05-22T23:39:10.703Z,101885.88
2019-05-22T23:41:40.963Z,101878.84
2019-05-22T23:44:12.921Z,101879.09
2019-05-22T23:46:42.996Z,101883.22
2019-05-22T23:49:13.489Z,101877.00
2019-05-22T23:51:43.467Z,101884.53
2019-05-22T23:54:13.135Z,101881.41
2019-05-22T23:56:44.393Z,101878.72
